sensor_id;sensor_type;location;lat;lon;timestamp;temperature;humidity
21037;DHT22;10677;50.942;4.028;2023-04-24T00:00:11;10.90;99.90
21037;DHT22;10677;50.942;4.028;2023-04-24T00:02:40;11.00;99.90
21037;DHT22;10677;50.942;4.028;2023-04-24T00:05:07;11.00;99.90
21037;DHT22;10677;50.942;4.028;2023-04-24T00:07:34;11.00;99.90
21037;DHT22;10677;50.942;4.028;2023-04-24T00:10:00;10.90;99.90
21037;DHT22;10677;50.942;4.028;2023-04-24T00:12:26;11.00;99.90
21037;DHT22;10677;50.942;4.028;2023-04-24T00:14:52;10.90;99.90
21037;DHT22;10677;50.942;4.028;2023-04-24T00:17:18;11.00;99.90
21037;DHT22;10677;50.942;4.028;2023-04-24T00:19:48;11.00;99.90
21037;DHT22;10677;50.942;4.028;2023-04-24T00:22:16;11.00;99.90
21037;DHT22;10677;50.942;4.028;2023-04-24T00:24:42;11.00;99.90
21037;DHT22;10677;50.942;4.028;2023-04-24T00:27:08;10.90;99.90
21037;DHT22;10677;50.942;4.028;2023-04-24T00:29:34;10.90;99.90
21037;DHT22;10677;50.942;4.028;2023-04-24T00:32:00;10.90;99.90
21037;DHT22;10677;50.942;4.028;2023-04-24T00:34:25;10.90;99.90
21037;DHT22;10677;50.942;4.028;2023-04-24T00:36:51;10.90;99.90
21037;DHT22;10677;50.942;4.028;2023-04-24T00:39:21;10.80;99.90
21037;DHT22;10677;50.942;4.028;2023-04-24T00:41:48;10.90;99.90
21037;DHT22;10677;50.942;4.028;2023-04-24T00:44:14;10.80;99.90
21037;DHT22;10677;50.942;4.028;2023-04-24T00:46:40;10.80;99.90
21037;DHT22;10677;50.942;4.028;2023-04-24T00:49:06;10.80;99.90
21037;DHT22;10677;50.942;4.028;2023-04-24T00:51:32;10.80;99.90
21037;DHT22;10677;50.942;4.028;2023-04-24T00:53:59;10.80;99.90
21037;DHT22;10677;50.942;4.028;2023-04-24T00:56:25;10.80;99.90
21037;DHT22;10677;50.942;4.028;2023-04-24T00:58:51;10.80;99.90
21037;DHT22;10677;50.942;4.028;2023-04-24T01:01:19;10.80;99.90
21037;DHT22;10677;50.942;4.028;2023-04-24T01:03:46;10.70;99.90
21037;DHT22;10677;50.942;4.028;2023-04-24T01:06:13;10.70;99.90
21037;DHT22;10677;50.942;4.028;2023-04-24T01:08:39;10.60;99.90
21037;DHT22;10677;50.942;4.028;2023-04-24T01:11:06;10.70;99.90
21037;DHT22;10677;50.942;4.028;2023-04-24T01:13:33;10.60;99.90
21037;DHT22;10677;50.942;4.028;2023-04-24T01:15:59;10.60;99.90
21037;DHT22;10677;50.942;4.028;2023-04-24T01:18:26;10.60;99.90
21037;DHT22;10677;50.942;4.028;2023-04-24T01:20:53;10.60;99.90
21037;DHT22;10677;50.942;4.028;2023-04-24T01:23:22;10.50;99.90
21037;DHT22;10677;50.942;4.028;2023-04-24T01:25:48;10.40;99.90
21037;DHT22;10677;50.942;4.028;2023-04-24T01:28:16;10.40;99.90
21037;DHT22;10677;50.942;4.028;2023-04-24T01:30:44;10.40;99.90
21037;DHT22;10677;50.942;4.028;2023-04-24T01:33:10;10.30;99.90
21037;DHT22;10677;50.942;4.028;2023-04-24T01:35:37;10.20;99.90
21037;DHT22;10677;50.942;4.028;2023-04-24T01:38:03;10.00;99.90
21037;DHT22;10677;50.942;4.028;2023-04-24T01:40:30;9.90;99.90
21037;DHT22;10677;50.942;4.028;2023-04-24T01:42:55;9.90;99.90
21037;DHT22;10677;50.942;4.028;2023-04-24T01:45:21;9.90;99.90
21037;DHT22;10677;50.942;4.028;2023-04-24T01:47:47;9.80;99.90
21037;DHT22;10677;50.942;4.028;2023-04-24T01:50:14;9.90;99.90
21037;DHT22;10677;50.942;4.028;2023-04-24T01:52:40;9.80;99.90
21037;DHT22;10677;50.942;4.028;2023-04-24T01:55:06;9.80;99.90
21037;DHT22;10677;50.942;4.028;2023-04-24T01:57:33;9.80;99.90
21037;DHT22;10677;50.942;4.028;2023-04-24T01:59:58;9.80;99.90
21037;DHT22;10677;50.942;4.028;2023-04-24T02:02:24;9.80;99.90
21037;DHT22;10677;50.942;4.028;2023-04-24T02:04:53;9.90;99.90
21037;DHT22;10677;50.942;4.028;2023-04-24T02:07:19;9.90;99.90
21037;DHT22;10677;50.942;4.028;2023-04-24T02:09:45;9.90;99.90
21037;DHT22;10677;50.942;4.028;2023-04-24T02:12:10;9.90;99.90
21037;DHT22;10677;50.942;4.028;2023-04-24T02:14:36;10.00;99.90
21037;DHT22;10677;50.942;4.028;2023-04-24T02:17:02;9.90;99.90
21037;DHT22;10677;50.942;4.028;2023-04-24T02:19:28;9.90;99.90
21037;DHT22;10677;50.942;4.028;2023-04-24T02:21:56;9.90;99.90
21037;DHT22;10677;50.942;4.028;2023-04-24T02:24:21;9.90;99.90
21037;DHT22;10677;50.942;4.028;2023-04-24T02:26:47;10.00;99.90
21037;DHT22;10677;50.942;4.028;2023-04-24T02:29:13;10.00;99.90
21037;DHT22;10677;50.942;4.028;2023-04-24T02:31:38;10.00;99.90
21037;DHT22;10677;50.942;4.028;2023-04-24T02:34:04;9.90;99.90
21037;DHT22;10677;50.942;4.028;2023-04-24T02:36:29;9.90;99.90
21037;DHT22;10677;50.942;4.028;2023-04-24T02:38:55;9.90;99.90
21037;DHT22;10677;50.942;4.028;2023-04-24T02:41:21;9.90;99.90
21037;DHT22;10677;50.942;4.028;2023-04-24T02:43:47;9.80;99.90
21037;DHT22;10677;50.942;4.028;2023-04-24T02:46:14;9.80;99.90
21037;DHT22;10677;50.942;4.028;2023-04-24T02:48:40;9.80;99.90
21037;DHT22;10677;50.942;4.028;2023-04-24T02:51:06;9.80;99.90
21037;DHT22;10677;50.942;4.028;2023-04-24T02:53:32;9.80;99.90
21037;DHT22;10677;50.942;4.028;2023-04-24T02:55:58;9.80;99.90
21037;DHT22;10677;50.942;4.028;2023-04-24T02:58:23;9.80;99.90
21037;DHT22;10677;50.942;4.028;2023-04-24T03:00:53;9.80;99.90
21037;DHT22;10677;50.942;4.028;2023-04-24T03:03:19;9.70;99.90
21037;DHT22;10677;50.942;4.028;2023-04-24T03:05:45;9.70;99.90
21037;DHT22;10677;50.942;4.028;2023-04-24T03:08:11;9.60;99.90
21037;DHT22;10677;50.942;4.028;2023-04-24T03:10:37;9.50;99.90
21037;DHT22;10677;50.942;4.028;2023-04-24T03:13:03;9.40;99.90
21037;DHT22;10677;50.942;4.028;2023-04-24T03:15:29;9.30;99.90
21037;DHT22;10677;50.942;4.028;2023-04-24T03:17:54;9.30;99.90
21037;DHT22;10677;50.942;4.028;2023-04-24T03:20:20;9.30;99.90
21037;DHT22;10677;50.942;4.028;2023-04-24T03:22:46;9.30;99.90
21037;DHT22;10677;50.942;4.028;2023-04-24T03:25:12;9.30;99.90
21037;DHT22;10677;50.942;4.028;2023-04-24T03:27:38;9.20;99.90
21037;DHT22;10677;50.942;4.028;2023-04-24T03:30:06;9.30;99.90
21037;DHT22;10677;50.942;4.028;2023-04-24T03:32:31;9.10;99.90
21037;DHT22;10677;50.942;4.028;2023-04-24T03:34:57;9.00;99.90
21037;DHT22;10677;50.942;4.028;2023-04-24T03:37:23;9.00;99.90
21037;DHT22;10677;50.942;4.028;2023-04-24T03:39:49;9.10;99.90
21037;DHT22;10677;50.942;4.028;2023-04-24T03:42:14;9.10;99.90
21037;DHT22;10677;50.942;4.028;2023-04-24T03:44:40;9.10;99.90
21037;DHT22;10677;50.942;4.028;2023-04-24T03:47:06;9.00;99.90
21037;DHT22;10677;50.942;4.028;2023-04-24T03:49:31;9.00;99.90
21037;DHT22;10677;50.942;4.028;2023-04-24T03:51:57;9.10;99.90
21037;DHT22;10677;50.942;4.028;2023-04-24T03:54:23;9.00;99.90
21037;DHT22;10677;50.942;4.028;2023-04-24T03:56:48;8.90;99.90
21037;DHT22;10677;50.942;4.028;2023-04-24T03:59:14;8.90;99.90
21037;DHT22;10677;50.942;4.028;2023-04-24T04:01:39;9.00;99.90
21037;DHT22;10677;50.942;4.028;2023-04-24T04:04:08;8.90;99.90
21037;DHT22;10677;50.942;4.028;2023-04-24T04:06:34;8.90;99.90
21037;DHT22;10677;50.942;4.028;2023-04-24T04:09:01;9.00;99.90
21037;DHT22;10677;50.942;4.028;2023-04-24T04:11:27;8.90;99.90
21037;DHT22;10677;50.942;4.028;2023-04-24T04:13:53;8.90;99.90
21037;DHT22;10677;50.942;4.028;2023-04-24T04:16:18;8.90;99.90
21037;DHT22;10677;50.942;4.028;2023-04-24T04:18:44;8.80;99.90
21037;DHT22;10677;50.942;4.028;2023-04-24T04:21:10;8.80;99.90
21037;DHT22;10677;50.942;4.028;2023-04-24T04:23:36;8.70;99.90
21037;DHT22;10677;50.942;4.028;2023-04-24T04:26:03;8.70;99.90
21037;DHT22;10677;50.942;4.028;2023-04-24T04:28:29;8.60;99.90
21037;DHT22;10677;50.942;4.028;2023-04-24T04:30:57;8.60;99.90
21037;DHT22;10677;50.942;4.028;2023-04-24T04:33:23;8.50;99.90
21037;DHT22;10677;50.942;4.028;2023-04-24T04:35:50;8.50;99.90
21037;DHT22;10677;50.942;4.028;2023-04-24T04:38:18;8.60;99.90
21037;DHT22;10677;50.942;4.028;2023-04-24T04:40:44;8.60;99.90
21037;DHT22;10677;50.942;4.028;2023-04-24T04:43:10;8.60;99.90
21037;DHT22;10677;50.942;4.028;2023-04-24T04:45:36;8.60;99.90
21037;DHT22;10677;50.942;4.028;2023-04-24T04:48:04;8.60;99.90
21037;DHT22;10677;50.942;4.028;2023-04-24T04:50:32;8.60;99.90
21037;DHT22;10677;50.942;4.028;2023-04-24T04:52:58;8.60;99.90
21037;DHT22;10677;50.942;4.028;2023-04-24T04:55:24;8.50;99.90
21037;DHT22;10677;50.942;4.028;2023-04-24T04:57:50;8.60;99.90
21037;DHT22;10677;50.942;4.028;2023-04-24T05:00:16;8.50;99.90
21037;DHT22;10677;50.942;4.028;2023-04-24T05:02:41;8.60;99.90
21037;DHT22;10677;50.942;4.028;2023-04-24T05:05:07;8.60;99.90
21037;DHT22;10677;50.942;4.028;2023-04-24T05:07:34;8.60;99.90
21037;DHT22;10677;50.942;4.028;2023-04-24T05:09:59;8.70;99.90
21037;DHT22;10677;50.942;4.028;2023-04-24T05:12:25;8.60;99.90
21037;DHT22;10677;50.942;4.028;2023-04-24T05:14:51;8.50;99.90
21037;DHT22;10677;50.942;4.028;2023-04-24T05:17:17;8.60;99.90
21037;DHT22;10677;50.942;4.028;2023-04-24T05:19:44;8.60;99.90
21037;DHT22;10677;50.942;4.028;2023-04-24T05:22:10;8.80;99.90
21037;DHT22;10677;50.942;4.028;2023-04-24T05:24:37;8.80;99.90
21037;DHT22;10677;50.942;4.028;2023-04-24T05:27:03;8.80;99.90
21037;DHT22;10677;50.942;4.028;2023-04-24T05:29:30;8.80;99.90
21037;DHT22;10677;50.942;4.028;2023-04-24T05:31:57;8.80;99.90
21037;DHT22;10677;50.942;4.028;2023-04-24T05:34:23;8.70;99.90
21037;DHT22;10677;50.942;4.028;2023-04-24T05:36:49;8.70;99.90
21037;DHT22;10677;50.942;4.028;2023-04-24T05:39:16;8.80;99.90
21037;DHT22;10677;50.942;4.028;2023-04-24T05:41:44;8.80;99.90
21037;DHT22;10677;50.942;4.028;2023-04-24T05:44:10;8.70;99.90
21037;DHT22;10677;50.942;4.028;2023-04-24T05:46:37;8.60;99.90
21037;DHT22;10677;50.942;4.028;2023-04-24T05:49:02;8.60;99.90
21037;DHT22;10677;50.942;4.028;2023-04-24T05:51:28;8.60;99.90
21037;DHT22;10677;50.942;4.028;2023-04-24T05:53:54;8.50;99.90
21037;DHT22;10677;50.942;4.028;2023-04-24T05:56:20;8.70;99.90
21037;DHT22;10677;50.942;4.028;2023-04-24T05:58:46;8.80;99.90
21037;DHT22;10677;50.942;4.028;2023-04-24T06:01:13;8.80;99.90
21037;DHT22;10677;50.942;4.028;2023-04-24T06:03:40;8.90;99.90
21037;DHT22;10677;50.942;4.028;2023-04-24T06:06:07;8.80;99.90
21037;DHT22;10677;50.942;4.028;2023-04-24T06:08:33;8.80;99.90
21037;DHT22;10677;50.942;4.028;2023-04-24T06:10:59;8.80;99.90
21037;DHT22;10677;50.942;4.028;2023-04-24T06:13:24;8.90;99.90
21037;DHT22;10677;50.942;4.028;2023-04-24T06:15:51;8.80;99.90
21037;DHT22;10677;50.942;4.028;2023-04-24T06:18:17;8.80;99.90
21037;DHT22;10677;50.942;4.028;2023-04-24T06:20:43;8.80;99.90
21037;DHT22;10677;50.942;4.028;2023-04-24T06:23:09;8.80;99.90
21037;DHT22;10677;50.942;4.028;2023-04-24T06:25:34;8.90;99.90
21037;DHT22;10677;50.942;4.028;2023-04-24T06:28:00;9.00;99.90
21037;DHT22;10677;50.942;4.028;2023-04-24T06:30:27;9.00;99.90
21037;DHT22;10677;50.942;4.028;2023-04-24T06:32:53;9.00;99.90
21037;DHT22;10677;50.942;4.028;2023-04-24T06:35:19;9.10;99.90
21037;DHT22;10677;50.942;4.028;2023-04-24T06:37:45;9.00;99.90
21037;DHT22;10677;50.942;4.028;2023-04-24T06:40:11;9.10;99.90
21037;DHT22;10677;50.942;4.028;2023-04-24T06:42:37;9.20;99.90
21037;DHT22;10677;50.942;4.028;2023-04-24T06:45:05;9.10;99.90
21037;DHT22;10677;50.942;4.028;2023-04-24T06:47:31;9.20;99.90
21037;DHT22;10677;50.942;4.028;2023-04-24T06:49:57;9.30;99.90
21037;DHT22;10677;50.942;4.028;2023-04-24T06:52:23;9.20;99.90
21037;DHT22;10677;50.942;4.028;2023-04-24T06:54:49;9.20;99.90
21037;DHT22;10677;50.942;4.028;2023-04-24T06:57:14;9.20;99.90
21037;DHT22;10677;50.942;4.028;2023-04-24T06:59:41;9.20;99.90
21037;DHT22;10677;50.942;4.028;2023-04-24T07:02:07;9.20;99.90
21037;DHT22;10677;50.942;4.028;2023-04-24T07:04:33;9.20;99.90
21037;DHT22;10677;50.942;4.028;2023-04-24T07:06:59;9.20;99.90
21037;DHT22;10677;50.942;4.028;2023-04-24T07:09:26;9.10;99.90
21037;DHT22;10677;50.942;4.028;2023-04-24T07:11:52;9.10;99.90
21037;DHT22;10677;50.942;4.028;2023-04-24T07:14:18;9.10;99.90
21037;DHT22;10677;50.942;4.028;2023-04-24T07:16:44;9.00;99.90
21037;DHT22;10677;50.942;4.028;2023-04-24T07:19:12;8.90;99.90
21037;DHT22;10677;50.942;4.028;2023-04-24T07:21:37;8.90;99.90
21037;DHT22;10677;50.942;4.028;2023-04-24T07:24:04;8.90;99.90
21037;DHT22;10677;50.942;4.028;2023-04-24T07:26:31;9.00;99.90
21037;DHT22;10677;50.942;4.028;2023-04-24T07:28:57;9.10;99.90
21037;DHT22;10677;50.942;4.028;2023-04-24T07:31:22;9.20;99.90
21037;DHT22;10677;50.942;4.028;2023-04-24T07:33:48;9.30;99.90
21037;DHT22;10677;50.942;4.028;2023-04-24T07:36:14;9.30;99.90
21037;DHT22;10677;50.942;4.028;2023-04-24T07:38:44;9.40;99.90
21037;DHT22;10677;50.942;4.028;2023-04-24T07:41:10;9.50;99.90
21037;DHT22;10677;50.942;4.028;2023-04-24T07:43:35;9.40;99.90
21037;DHT22;10677;50.942;4.028;2023-04-24T07:46:01;9.30;99.90
21037;DHT22;10677;50.942;4.028;2023-04-24T07:48:27;9.20;99.90
21037;DHT22;10677;50.942;4.028;2023-04-24T07:50:53;9.20;99.90
21037;DHT22;10677;50.942;4.028;2023-04-24T07:53:19;9.20;99.90
21037;DHT22;10677;50.942;4.028;2023-04-24T07:55:45;9.30;99.90
21037;DHT22;10677;50.942;4.028;2023-04-24T07:58:11;9.40;99.90
21037;DHT22;10677;50.942;4.028;2023-04-24T08:00:37;9.50;99.90
21037;DHT22;10677;50.942;4.028;2023-04-24T08:03:03;9.50;99.90
21037;DHT22;10677;50.942;4.028;2023-04-24T08:05:28;9.60;99.90
21037;DHT22;10677;50.942;4.028;2023-04-24T08:07:54;9.60;99.90
21037;DHT22;10677;50.942;4.028;2023-04-24T08:10:23;9.80;99.90
21037;DHT22;10677;50.942;4.028;2023-04-24T08:12:49;9.70;99.90
21037;DHT22;10677;50.942;4.028;2023-04-24T08:15:15;9.70;99.90
21037;DHT22;10677;50.942;4.028;2023-04-24T08:17:40;9.80;99.90
21037;DHT22;10677;50.942;4.028;2023-04-24T08:20:08;9.70;99.90
21037;DHT22;10677;50.942;4.028;2023-04-24T08:22:42;9.70;99.90
21037;DHT22;10677;50.942;4.028;2023-04-24T08:25:11;9.70;99.90
21037;DHT22;10677;50.942;4.028;2023-04-24T08:27:37;9.80;99.90
21037;DHT22;10677;50.942;4.028;2023-04-24T08:30:05;9.80;99.90
21037;DHT22;10677;50.942;4.028;2023-04-24T08:32:31;10.00;99.90
21037;DHT22;10677;50.942;4.028;2023-04-24T08:34:58;10.00;99.90
21037;DHT22;10677;50.942;4.028;2023-04-24T08:37:26;10.10;99.90
21037;DHT22;10677;50.942;4.028;2023-04-24T08:39:53;10.30;99.90
21037;DHT22;10677;50.942;4.028;2023-04-24T08:42:20;10.50;99.90
21037;DHT22;10677;50.942;4.028;2023-04-24T08:44:48;10.70;99.90
21037;DHT22;10677;50.942;4.028;2023-04-24T08:47:15;10.70;99.90
21037;DHT22;10677;50.942;4.028;2023-04-24T08:49:41;10.50;99.90
21037;DHT22;10677;50.942;4.028;2023-04-24T08:52:08;10.50;99.90
21037;DHT22;10677;50.942;4.028;2023-04-24T08:54:38;10.50;99.90
21037;DHT22;10677;50.942;4.028;2023-04-24T08:57:07;10.70;99.90
21037;DHT22;10677;50.942;4.028;2023-04-24T08:59:36;10.90;99.90
21037;DHT22;10677;50.942;4.028;2023-04-24T09:02:03;10.90;99.90
21037;DHT22;10677;50.942;4.028;2023-04-24T09:04:30;10.70;99.90
21037;DHT22;10677;50.942;4.028;2023-04-24T09:06:58;10.70;99.90
21037;DHT22;10677;50.942;4.028;2023-04-24T09:09:25;10.80;99.90
21037;DHT22;10677;50.942;4.028;2023-04-24T09:11:52;10.60;99.90
21037;DHT22;10677;50.942;4.028;2023-04-24T09:14:20;10.70;99.90
21037;DHT22;10677;50.942;4.028;2023-04-24T09:16:47;11.00;99.90
21037;DHT22;10677;50.942;4.028;2023-04-24T09:19:13;11.00;99.90
21037;DHT22;10677;50.942;4.028;2023-04-24T09:21:39;11.10;99.90
21037;DHT22;10677;50.942;4.028;2023-04-24T09:24:14;11.10;99.90
21037;DHT22;10677;50.942;4.028;2023-04-24T09:26:40;11.20;99.90
21037;DHT22;10677;50.942;4.028;2023-04-24T09:29:06;11.30;99.90
21037;DHT22;10677;50.942;4.028;2023-04-24T09:31:31;11.50;99.90
21037;DHT22;10677;50.942;4.028;2023-04-24T09:34:02;11.80;99.90
21037;DHT22;10677;50.942;4.028;2023-04-24T09:36:44;11.90;99.90
21037;DHT22;10677;50.942;4.028;2023-04-24T09:39:14;11.90;99.90
21037;DHT22;10677;50.942;4.028;2023-04-24T09:41:50;11.90;99.90
21037;DHT22;10677;50.942;4.028;2023-04-24T09:44:18;11.50;99.90
21037;DHT22;10677;50.942;4.028;2023-04-24T09:46:50;11.50;99.90
21037;DHT22;10677;50.942;4.028;2023-04-24T09:49:21;11.40;99.90
21037;DHT22;10677;50.942;4.028;2023-04-24T09:51:47;11.40;99.90
21037;DHT22;10677;50.942;4.028;2023-04-24T09:54:20;11.50;99.90
21037;DHT22;10677;50.942;4.028;2023-04-24T09:56:48;11.70;99.90
21037;DHT22;10677;50.942;4.028;2023-04-24T09:59:19;11.70;99.90
21037;DHT22;10677;50.942;4.028;2023-04-24T10:01:45;12.10;99.90
21037;DHT22;10677;50.942;4.028;2023-04-24T10:04:21;12.50;99.90
21037;DHT22;10677;50.942;4.028;2023-04-24T10:06:49;12.50;99.90
21037;DHT22;10677;50.942;4.028;2023-04-24T10:09:20;12.50;99.90
21037;DHT22;10677;50.942;4.028;2023-04-24T10:11:48;12.10;99.90
21037;DHT22;10677;50.942;4.028;2023-04-24T10:14:15;12.30;99.90
21037;DHT22;10677;50.942;4.028;2023-04-24T10:16:42;12.50;99.90
21037;DHT22;10677;50.942;4.028;2023-04-24T10:19:09;12.40;99.90
21037;DHT22;10677;50.942;4.028;2023-04-24T10:21:35;12.20;99.90
21037;DHT22;10677;50.942;4.028;2023-04-24T10:24:05;12.00;99.90
21037;DHT22;10677;50.942;4.028;2023-04-24T10:26:33;11.70;99.90
21037;DHT22;10677;50.942;4.028;2023-04-24T10:28:59;11.70;99.90
21037;DHT22;10677;50.942;4.028;2023-04-24T10:31:26;11.70;99.90
21037;DHT22;10677;50.942;4.028;2023-04-24T10:33:53;11.60;99.90
21037;DHT22;10677;50.942;4.028;2023-04-24T10:36:22;11.70;99.90
21037;DHT22;10677;50.942;4.028;2023-04-24T10:38:49;11.90;99.90
21037;DHT22;10677;50.942;4.028;2023-04-24T10:41:18;11.80;99.90
21037;DHT22;10677;50.942;4.028;2023-04-24T10:44:03;11.60;99.90
21037;DHT22;10677;50.942;4.028;2023-04-24T10:46:30;11.60;99.90
21037;DHT22;10677;50.942;4.028;2023-04-24T10:48:56;11.70;99.90
21037;DHT22;10677;50.942;4.028;2023-04-24T10:51:24;11.90;99.90
21037;DHT22;10677;50.942;4.028;2023-04-24T10:53:51;12.30;99.90
21037;DHT22;10677;50.942;4.028;2023-04-24T10:56:17;12.40;99.90
21037;DHT22;10677;50.942;4.028;2023-04-24T10:58:51;12.20;99.90
21037;DHT22;10677;50.942;4.028;2023-04-24T11:01:29;12.50;99.90
21037;DHT22;10677;50.942;4.028;2023-04-24T11:03:59;12.40;99.90
21037;DHT22;10677;50.942;4.028;2023-04-24T11:06:36;12.60;99.90
21037;DHT22;10677;50.942;4.028;2023-04-24T11:09:10;12.60;99.90
21037;DHT22;10677;50.942;4.028;2023-04-24T11:11:43;12.20;99.90
21037;DHT22;10677;50.942;4.028;2023-04-24T11:14:15;12.10;99.90
21037;DHT22;10677;50.942;4.028;2023-04-24T11:21:48;12.60;99.90
21037;DHT22;10677;50.942;4.028;2023-04-24T11:24:37;13.00;99.90
21037;DHT22;10677;50.942;4.028;2023-04-24T11:37:39;13.20;99.90
21037;DHT22;10677;50.942;4.028;2023-04-24T11:40:10;13.40;99.90
21037;DHT22;10677;50.942;4.028;2023-04-24T11:42:41;13.30;99.90
21037;DHT22;10677;50.942;4.028;2023-04-24T11:45:12;12.60;99.90
21037;DHT22;10677;50.942;4.028;2023-04-24T11:47:39;12.30;99.90
21037;DHT22;10677;50.942;4.028;2023-04-24T11:50:07;12.40;99.90
21037;DHT22;10677;50.942;4.028;2023-04-24T11:52:37;12.90;99.90
21037;DHT22;10677;50.942;4.028;2023-04-24T11:55:03;13.00;99.90
21037;DHT22;10677;50.942;4.028;2023-04-24T11:57:29;13.50;99.90
21037;DHT22;10677;50.942;4.028;2023-04-24T12:00:03;13.50;99.90
21037;DHT22;10677;50.942;4.028;2023-04-24T12:02:30;13.60;99.90
21037;DHT22;10677;50.942;4.028;2023-04-24T12:04:56;13.50;99.90
21037;DHT22;10677;50.942;4.028;2023-04-24T12:07:23;13.10;99.90
21037;DHT22;10677;50.942;4.028;2023-04-24T12:09:59;13.40;99.90
21037;DHT22;10677;50.942;4.028;2023-04-24T12:12:28;13.40;99.90
21037;DHT22;10677;50.942;4.028;2023-04-24T12:15:13;13.20;99.90
21037;DHT22;10677;50.942;4.028;2023-04-24T12:17:41;12.80;99.90
21037;DHT22;10677;50.942;4.028;2023-04-24T12:20:08;12.50;99.90
21037;DHT22;10677;50.942;4.028;2023-04-24T12:22:47;12.80;99.90
21037;DHT22;10677;50.942;4.028;2023-04-24T12:25:14;12.80;99.90
21037;DHT22;10677;50.942;4.028;2023-04-24T12:27:40;12.80;99.90
21037;DHT22;10677;50.942;4.028;2023-04-24T12:30:10;13.10;99.90
21037;DHT22;10677;50.942;4.028;2023-04-24T12:32:48;13.20;99.90
21037;DHT22;10677;50.942;4.028;2023-04-24T12:35:19;13.30;99.90
21037;DHT22;10677;50.942;4.028;2023-04-24T12:37:46;13.70;99.90
21037;DHT22;10677;50.942;4.028;2023-04-24T12:40:13;13.60;99.90
21037;DHT22;10677;50.942;4.028;2023-04-24T12:42:45;13.60;99.90
21037;DHT22;10677;50.942;4.028;2023-04-24T12:45:12;13.30;99.90
21037;DHT22;10677;50.942;4.028;2023-04-24T12:47:41;12.90;99.90
21037;DHT22;10677;50.942;4.028;2023-04-24T12:50:09;12.80;99.90
21037;DHT22;10677;50.942;4.028;2023-04-24T12:52:36;12.80;99.90
21037;DHT22;10677;50.942;4.028;2023-04-24T12:55:02;12.80;99.90
21037;DHT22;10677;50.942;4.028;2023-04-24T12:57:30;12.80;99.90
21037;DHT22;10677;50.942;4.028;2023-04-24T12:59:58;13.10;99.90
21037;DHT22;10677;50.942;4.028;2023-04-24T13:02:31;13.20;99.90
21037;DHT22;10677;50.942;4.028;2023-04-24T13:04:59;13.30;99.90
21037;DHT22;10677;50.942;4.028;2023-04-24T13:07:26;13.40;99.90
21037;DHT22;10677;50.942;4.028;2023-04-24T13:09:55;13.50;99.90
21037;DHT22;10677;50.942;4.028;2023-04-24T13:12:21;13.70;99.90
21037;DHT22;10677;50.942;4.028;2023-04-24T13:14:50;14.00;99.90
21037;DHT22;10677;50.942;4.028;2023-04-24T13:17:16;14.10;99.90
21037;DHT22;10677;50.942;4.028;2023-04-24T13:19:44;13.70;99.90
21037;DHT22;10677;50.942;4.028;2023-04-24T13:22:11;13.60;99.90
21037;DHT22;10677;50.942;4.028;2023-04-24T13:24:37;13.40;99.90
21037;DHT22;10677;50.942;4.028;2023-04-24T13:27:05;13.30;99.90
21037;DHT22;10677;50.942;4.028;2023-04-24T13:29:31;13.50;99.90
21037;DHT22;10677;50.942;4.028;2023-04-24T13:31:56;13.50;99.90
21037;DHT22;10677;50.942;4.028;2023-04-24T13:34:24;14.00;99.90
21037;DHT22;10677;50.942;4.028;2023-04-24T13:36:55;14.60;99.90
21037;DHT22;10677;50.942;4.028;2023-04-24T13:39:22;14.90;99.90
21037;DHT22;10677;50.942;4.028;2023-04-24T13:41:48;15.20;99.90
21037;DHT22;10677;50.942;4.028;2023-04-24T13:44:15;15.10;99.90
21037;DHT22;10677;50.942;4.028;2023-04-24T13:46:42;14.60;99.90
21037;DHT22;10677;50.942;4.028;2023-04-24T13:49:10;14.30;99.90
21037;DHT22;10677;50.942;4.028;2023-04-24T13:51:35;14.30;99.90
21037;DHT22;10677;50.942;4.028;2023-04-24T13:54:01;15.40;99.90
21037;DHT22;10677;50.942;4.028;2023-04-24T13:56:27;15.40;99.90
21037;DHT22;10677;50.942;4.028;2023-04-24T13:58:53;16.40;99.90
21037;DHT22;10677;50.942;4.028;2023-04-24T14:01:21;17.80;99.90
21037;DHT22;10677;50.942;4.028;2023-04-24T14:03:51;17.70;99.90
21037;DHT22;10677;50.942;4.028;2023-04-24T14:06:18;17.80;99.90
21037;DHT22;10677;50.942;4.028;2023-04-24T14:08:44;17.10;99.90
21037;DHT22;10677;50.942;4.028;2023-04-24T14:11:12;16.80;99.90
21037;DHT22;10677;50.942;4.028;2023-04-24T14:13:38;16.30;99.90
21037;DHT22;10677;50.942;4.028;2023-04-24T14:16:04;15.80;99.90
21037;DHT22;10677;50.942;4.028;2023-04-24T14:18:30;15.40;99.90
21037;DHT22;10677;50.942;4.028;2023-04-24T14:20:57;16.10;99.90
21037;DHT22;10677;50.942;4.028;2023-04-24T14:23:23;16.30;99.90
21037;DHT22;10677;50.942;4.028;2023-04-24T14:25:49;15.40;99.90
21037;DHT22;10677;50.942;4.028;2023-04-24T14:28:18;14.20;99.90
21037;DHT22;10677;50.942;4.028;2023-04-24T14:30:44;14.10;99.90
21037;DHT22;10677;50.942;4.028;2023-04-24T14:33:10;13.90;99.90
21037;DHT22;10677;50.942;4.028;2023-04-24T14:35:37;13.80;99.90
21037;DHT22;10677;50.942;4.028;2023-04-24T14:38:03;13.60;99.90
21037;DHT22;10677;50.942;4.028;2023-04-24T14:40:28;13.80;99.90
21037;DHT22;10677;50.942;4.028;2023-04-24T14:42:54;14.10;99.90
21037;DHT22;10677;50.942;4.028;2023-04-24T14:45:20;13.80;99.90
21037;DHT22;10677;50.942;4.028;2023-04-24T14:47:46;13.60;99.90
21037;DHT22;10677;50.942;4.028;2023-04-24T14:50:11;13.50;99.90
21037;DHT22;10677;50.942;4.028;2023-04-24T14:52:38;13.50;99.90
21037;DHT22;10677;50.942;4.028;2023-04-24T14:55:04;13.50;99.90
21037;DHT22;10677;50.942;4.028;2023-04-24T14:57:30;13.70;99.90
21037;DHT22;10677;50.942;4.028;2023-04-24T14:59:56;13.60;99.90
21037;DHT22;10677;50.942;4.028;2023-04-24T15:02:21;13.40;99.90
21037;DHT22;10677;50.942;4.028;2023-04-24T15:04:47;13.50;99.90
21037;DHT22;10677;50.942;4.028;2023-04-24T15:07:13;13.70;99.90
21037;DHT22;10677;50.942;4.028;2023-04-24T15:09:38;13.60;99.90
21037;DHT22;10677;50.942;4.028;2023-04-24T15:12:04;13.70;99.90
21037;DHT22;10677;50.942;4.028;2023-04-24T15:14:30;13.90;99.90
21037;DHT22;10677;50.942;4.028;2023-04-24T15:16:55;14.20;99.90
21037;DHT22;10677;50.942;4.028;2023-04-24T15:19:21;14.20;99.90
21037;DHT22;10677;50.942;4.028;2023-04-24T15:21:48;13.90;99.90
21037;DHT22;10677;50.942;4.028;2023-04-24T15:24:13;13.60;99.90
21037;DHT22;10677;50.942;4.028;2023-04-24T15:26:39;13.40;99.90
21037;DHT22;10677;50.942;4.028;2023-04-24T15:29:05;13.30;99.90
21037;DHT22;10677;50.942;4.028;2023-04-24T15:31:31;13.00;99.90
21037;DHT22;10677;50.942;4.028;2023-04-24T15:33:56;12.60;99.90
21037;DHT22;10677;50.942;4.028;2023-04-24T15:36:22;12.60;99.90
21037;DHT22;10677;50.942;4.028;2023-04-24T15:38:48;12.70;99.90
21037;DHT22;10677;50.942;4.028;2023-04-24T15:41:14;12.60;99.90
21037;DHT22;10677;50.942;4.028;2023-04-24T15:43:40;12.60;99.90
21037;DHT22;10677;50.942;4.028;2023-04-24T15:46:07;12.60;99.90
21037;DHT22;10677;50.942;4.028;2023-04-24T15:48:33;12.50;99.90
21037;DHT22;10677;50.942;4.028;2023-04-24T15:50:59;12.50;99.90